sensor_id;sensor_type;location;lat;lon;timestamp;pressure;altitude;pressure_sealevel;temperature;humidity
8699;BME280;4386;51.236;6.742;2022-12-01T00:00:59;102130.75;;;8.51;83.74
8699;BME280;4386;51.236;6.742;2022-12-01T00:02:03;102131.59;;;8.52;83.73
8699;BME280;4386;51.236;6.742;2022-12-01T00:03:05;102135.09;;;8.52;83.38
8699;BME280;4386;51.236;6.742;2022-12-01T00:04:07;102135.09;;;8.52;83.49
8699;BME280;4386;51.236;6.742;2022-12-01T00:05:10;102132.41;;;8.54;83.52
8699;BME280;4386;51.236;6.742;2022-12-01T00:06:13;102133.22;;;8.54;83.85
8699;BME280;4386;51.236;6.742;2022-12-01T00:07:17;102130.47;;;8.57;83.52
8699;BME280;4386;51.236;6.742;2022-12-01T00:08:19;102127.84;;;8.57;83.52
8699;BME280;4386;51.236;6.742;2022-12-01T00:09:22;102126.03;;;8.58;83.74
8699;BME280;4386;51.236;6.742;2022-12-01T00:10:42;102130.38;;;8.59;83.47
8699;BME280;4386;51.236;6.742;2022-12-01T00:11:44;102132.13;;;8.60;83.51
8699;BME280;4386;51.236;6.742;2022-12-01T00:12:45;102128.66;;;8.58;83.54
8699;BME280;4386;51.236;6.742;2022-12-01T00:13:48;102132.25;;;8.57;83.52
8699;BME280;4386;51.236;6.742;2022-12-01T00:14:49;102129.63;;;8.57;83.54
8699;BME280;4386;51.236;6.742;2022-12-01T00:15:55;102129.66;;;8.55;83.51
8699;BME280;4386;51.236;6.742;2022-12-01T00:16:56;102126.97;;;8.57;83.40
8699;BME280;4386;51.236;6.742;2022-12-01T00:18:00;102118.19;;;8.56;83.50
8699;BME280;4386;51.236;6.742;2022-12-01T00:19:01;102124.38;;;8.55;83.22
8699;BME280;4386;51.236;6.742;2022-12-01T00:20:05;102121.75;;;8.55;83.61
8699;BME280;4386;51.236;6.742;2022-12-01T00:21:12;102120.03;;;8.54;83.41
8699;BME280;4386;51.236;6.742;2022-12-01T00:22:15;102127.94;;;8.54;83.50
8699;BME280;4386;51.236;6.742;2022-12-01T00:23:18;102127.94;;;8.54;83.26
8699;BME280;4386;51.236;6.742;2022-12-01T00:24:20;102119.25;;;8.52;83.51
8699;BME280;4386;51.236;6.742;2022-12-01T00:25:23;102122.81;;;8.51;83.11
8699;BME280;4386;51.236;6.742;2022-12-01T00:26:26;102116.69;;;8.51;83.34
8699;BME280;4386;51.236;6.742;2022-12-01T00:27:28;102121.91;;;8.52;83.40
8699;BME280;4386;51.236;6.742;2022-12-01T00:28:30;102127.19;;;8.52;83.74
8699;BME280;4386;51.236;6.742;2022-12-01T00:29:32;102126.41;;;8.50;83.73
8699;BME280;4386;51.236;6.742;2022-12-01T00:30:35;102126.41;;;8.50;83.41
8699;BME280;4386;51.236;6.742;2022-12-01T00:31:36;102123.75;;;8.50;83.73
8699;BME280;4386;51.236;6.742;2022-12-01T00:32:39;102121.97;;;8.51;83.32
8699;BME280;4386;51.236;6.742;2022-12-01T00:33:41;102121.97;;;8.51;83.44
8699;BME280;4386;51.236;6.742;2022-12-01T00:34:43;102126.25;;;8.53;83.66
8699;BME280;4386;51.236;6.742;2022-12-01T00:35:45;102121.84;;;8.54;83.42
8699;BME280;4386;51.236;6.742;2022-12-01T00:36:47;102118.25;;;8.55;83.64
8699;BME280;4386;51.236;6.742;2022-12-01T00:37:49;102122.56;;;8.57;83.36
8699;BME280;4386;51.236;6.742;2022-12-01T00:38:54;102122.47;;;8.59;83.68
8699;BME280;4386;51.236;6.742;2022-12-01T00:39:56;102125.97;;;8.59;83.40
8699;BME280;4386;51.236;6.742;2022-12-01T00:40:58;102118.03;;;8.59;83.44
8699;BME280;4386;51.236;6.742;2022-12-01T00:42:00;102122.47;;;8.59;83.45
8699;BME280;4386;51.236;6.742;2022-12-01T00:43:02;102120.69;;;8.59;83.49
8699;BME280;4386;51.236;6.742;2022-12-01T00:44:04;102125.88;;;8.61;83.09
8699;BME280;4386;51.236;6.742;2022-12-01T00:45:07;102124.09;;;8.61;83.42
8699;BME280;4386;51.236;6.742;2022-12-01T00:46:09;102123.19;;;8.62;83.33
8699;BME280;4386;51.236;6.742;2022-12-01T00:47:12;102124.97;;;8.62;83.43
8699;BME280;4386;51.236;6.742;2022-12-01T00:48:14;102125.81;;;8.62;83.66
8699;BME280;4386;51.236;6.742;2022-12-01T00:49:16;102118.81;;;8.61;83.23
8699;BME280;4386;51.236;6.742;2022-12-01T00:50:18;102125.97;;;8.59;83.20
8699;BME280;4386;51.236;6.742;2022-12-01T00:51:20;102125.97;;;8.59;83.50
8699;BME280;4386;51.236;6.742;2022-12-01T00:52:22;102118.97;;;8.58;83.29
8699;BME280;4386;51.236;6.742;2022-12-01T00:53:24;102121.69;;;8.57;83.35
8699;BME280;4386;51.236;6.742;2022-12-01T00:54:27;102127.84;;;8.57;83.32
8699;BME280;4386;51.236;6.742;2022-12-01T00:55:32;102124.38;;;8.55;83.26
8699;BME280;4386;51.236;6.742;2022-12-01T00:56:33;102124.53;;;8.52;83.12
8699;BME280;4386;51.236;6.742;2022-12-01T00:57:36;102133.38;;;8.51;83.59
8699;BME280;4386;51.236;6.742;2022-12-01T00:58:38;102120.25;;;8.50;83.37
8699;BME280;4386;51.236;6.742;2022-12-01T00:59:40;102121.13;;;8.50;83.39
8699;BME280;4386;51.236;6.742;2022-12-01T01:00:42;102122.03;;;8.49;83.31
8699;BME280;4386;51.236;6.742;2022-12-01T01:01:44;102129.09;;;8.49;83.75
8699;BME280;4386;51.236;6.742;2022-12-01T01:02:47;102125.59;;;8.48;83.61
8699;BME280;4386;51.236;6.742;2022-12-01T01:03:48;102125.53;;;8.50;83.45
8699;BME280;4386;51.236;6.742;2022-12-01T01:04:51;102129.97;;;8.49;83.46
8699;BME280;4386;51.236;6.742;2022-12-01T01:05:52;102130.81;;;8.50;83.33
8699;BME280;4386;51.236;6.742;2022-12-01T01:06:55;102132.53;;;8.51;83.62
8699;BME280;4386;51.236;6.742;2022-12-01T01:07:56;102128.09;;;8.51;83.52
8699;BME280;4386;51.236;6.742;2022-12-01T01:08:59;102127.19;;;8.52;83.49
8699;BME280;4386;51.236;6.742;2022-12-01T01:10:02;102126.25;;;8.53;83.58
8699;BME280;4386;51.236;6.742;2022-12-01T01:11:06;102134.94;;;8.55;83.69
8699;BME280;4386;51.236;6.742;2022-12-01T01:12:07;102133.94;;;8.58;83.53
8699;BME280;4386;51.236;6.742;2022-12-01T01:13:11;102130.34;;;8.60;83.49
8699;BME280;4386;51.236;6.742;2022-12-01T01:14:12;102138.25;;;8.60;83.50
8699;BME280;4386;51.236;6.742;2022-12-01T01:15:20;102140.09;;;8.58;83.50
8699;BME280;4386;51.236;6.742;2022-12-01T01:16:21;102132.16;;;8.58;83.70
8699;BME280;4386;51.236;6.742;2022-12-01T01:17:24;102134.81;;;8.58;83.38
8699;BME280;4386;51.236;6.742;2022-12-01T01:18:26;102136.53;;;8.59;83.49
8699;BME280;4386;51.236;6.742;2022-12-01T01:19:29;102139.19;;;8.59;83.69
8699;BME280;4386;51.236;6.742;2022-12-01T01:20:30;102133.03;;;8.59;83.69
8699;BME280;4386;51.236;6.742;2022-12-01T01:21:33;102134.81;;;8.58;83.62
8699;BME280;4386;51.236;6.742;2022-12-01T01:22:35;102133.94;;;8.58;83.70
8699;BME280;4386;51.236;6.742;2022-12-01T01:23:37;102140.09;;;8.58;83.64
8699;BME280;4386;51.236;6.742;2022-12-01T01:24:39;102142.72;;;8.58;83.75
8699;BME280;4386;51.236;6.742;2022-12-01T01:25:43;102143.59;;;8.59;83.68
8699;BME280;4386;51.236;6.742;2022-12-01T01:26:44;102136.59;;;8.58;83.57
8699;BME280;4386;51.236;6.742;2022-12-01T01:27:47;102147.25;;;8.56;83.54
8699;BME280;4386;51.236;6.742;2022-12-01T01:28:49;102137.69;;;8.54;83.86
8699;BME280;4386;51.236;6.742;2022-12-01T01:29:51;102147.44;;;8.52;83.83
8699;BME280;4386;51.236;6.742;2022-12-01T01:30:53;102143.19;;;8.49;83.70
8699;BME280;4386;51.236;6.742;2022-12-01T01:31:55;102138.91;;;8.47;83.74
8699;BME280;4386;51.236;6.742;2022-12-01T01:32:58;102138.91;;;8.47;83.80
8699;BME280;4386;51.236;6.742;2022-12-01T01:33:59;102142.41;;;8.47;83.85
8699;BME280;4386;51.236;6.742;2022-12-01T01:35:02;102142.41;;;8.47;84.11
8699;BME280;4386;51.236;6.742;2022-12-01T01:36:04;102145.97;;;8.46;84.05
8699;BME280;4386;51.236;6.742;2022-12-01T01:37:07;102149.53;;;8.45;84.00
8699;BME280;4386;51.236;6.742;2022-12-01T01:38:09;102146.00;;;8.45;84.09
8699;BME280;4386;51.236;6.742;2022-12-01T01:39:11;102145.09;;;8.46;84.05
8699;BME280;4386;51.236;6.742;2022-12-01T01:40:13;102143.31;;;8.46;84.16
8699;BME280;4386;51.236;6.742;2022-12-01T01:41:18;102151.25;;;8.46;84.19
8699;BME280;4386;51.236;6.742;2022-12-01T01:42:19;102149.53;;;8.45;83.85
8699;BME280;4386;51.236;6.742;2022-12-01T01:43:38;102151.25;;;8.46;84.18
8699;BME280;4386;51.236;6.742;2022-12-01T01:44:51;102146.81;;;8.47;84.05
8699;BME280;4386;51.236;6.742;2022-12-01T01:45:54;102162.72;;;8.45;84.02
8699;BME280;4386;51.236;6.742;2022-12-01T01:46:55;102154.03;;;8.43;84.04
8699;BME280;4386;51.236;6.742;2022-12-01T01:47:58;102152.31;;;8.42;84.33
8699;BME280;4386;51.236;6.742;2022-12-01T01:49:02;102150.59;;;8.41;84.23
8699;BME280;4386;51.236;6.742;2022-12-01T01:50:10;102154.03;;;8.43;84.18
8699;BME280;4386;51.236;6.742;2022-12-01T01:51:14;102144.38;;;8.42;84.21
8699;BME280;4386;51.236;6.742;2022-12-01T01:52:17;102158.50;;;8.41;84.13
8699;BME280;4386;51.236;6.742;2022-12-01T01:53:19;102161.16;;;8.41;84.17
8699;BME280;4386;51.236;6.742;2022-12-01T01:54:25;102153.22;;;8.41;84.32
8699;BME280;4386;51.236;6.742;2022-12-01T01:55:28;102153.22;;;8.41;84.54
8699;BME280;4386;51.236;6.742;2022-12-01T01:56:33;102157.53;;;8.44;84.54
8699;BME280;4386;51.236;6.742;2022-12-01T01:57:37;102152.25;;;8.44;84.49
8699;BME280;4386;51.236;6.742;2022-12-01T01:58:40;102160.09;;;8.45;84.45
8699;BME280;4386;51.236;6.742;2022-12-01T01:59:45;102160.09;;;8.45;84.34
8699;BME280;4386;51.236;6.742;2022-12-01T02:00:49;102162.72;;;8.45;84.36
8699;BME280;4386;51.236;6.742;2022-12-01T02:01:55;102159.16;;;8.46;84.49
8699;BME280;4386;51.236;6.742;2022-12-01T02:03:00;102160.03;;;8.47;84.34
8699;BME280;4386;51.236;6.742;2022-12-01T02:04:02;102159.16;;;8.46;84.37
8699;BME280;4386;51.236;6.742;2022-12-01T02:05:07;102152.09;;;8.47;84.16
8699;BME280;4386;51.236;6.742;2022-12-01T02:06:11;102159.94;;;8.48;84.46
8699;BME280;4386;51.236;6.742;2022-12-01T02:07:16;102156.38;;;8.49;84.40
8699;BME280;4386;51.236;6.742;2022-12-01T02:08:19;102154.66;;;8.48;84.29
8699;BME280;4386;51.236;6.742;2022-12-01T02:09:21;102157.38;;;8.47;84.49
8699;BME280;4386;51.236;6.742;2022-12-01T02:10:26;102151.25;;;8.46;84.31
8699;BME280;4386;51.236;6.742;2022-12-01T02:11:56;102152.16;;;8.45;84.24
8699;BME280;4386;51.236;6.742;2022-12-01T02:13:09;102160.09;;;8.45;84.26
8699;BME280;4386;51.236;6.742;2022-12-01T02:14:35;102161.94;;;8.43;84.63
8699;BME280;4386;51.236;6.742;2022-12-01T02:15:47;102157.59;;;8.42;84.68
8699;BME280;4386;51.236;6.742;2022-12-01T02:16:58;102155.88;;;8.41;84.68
8699;BME280;4386;51.236;6.742;2022-12-01T02:18:13;102149.66;;;8.42;84.55
8699;BME280;4386;51.236;6.742;2022-12-01T02:19:40;102155.88;;;8.41;84.54
8699;BME280;4386;51.236;6.742;2022-12-01T02:21:24;102155.09;;;8.39;84.49
8699;BME280;4386;51.236;6.742;2022-12-01T02:22:34;102156.97;;;8.37;84.71
8699;BME280;4386;51.236;6.742;2022-12-01T02:24:18;102149.09;;;8.35;84.68
8699;BME280;4386;51.236;6.742;2022-12-01T02:25:34;102144.72;;;8.34;84.94
8699;BME280;4386;51.236;6.742;2022-12-01T02:26:43;102144.81;;;8.33;84.56
8699;BME280;4386;51.236;6.742;2022-12-01T02:28:24;102158.00;;;8.33;84.71
8699;BME280;4386;51.236;6.742;2022-12-01T02:29:40;102152.78;;;8.31;84.87
8699;BME280;4386;51.236;6.742;2022-12-01T02:30:52;102153.66;;;8.32;84.81
8699;BME280;4386;51.236;6.742;2022-12-01T02:31:59;102156.28;;;8.32;84.95
8699;BME280;4386;51.236;6.742;2022-12-01T02:33:09;102147.38;;;8.34;85.23
8699;BME280;4386;51.236;6.742;2022-12-01T02:34:21;102151.81;;;8.34;85.09
8699;BME280;4386;51.236;6.742;2022-12-01T02:35:30;102151.72;;;8.35;84.97
8699;BME280;4386;51.236;6.742;2022-12-01T02:36:42;102148.22;;;8.35;84.88
8699;BME280;4386;51.236;6.742;2022-12-01T02:37:49;102155.28;;;8.34;85.11
8699;BME280;4386;51.236;6.742;2022-12-01T02:39:02;102149.94;;;8.36;85.17
8699;BME280;4386;51.236;6.742;2022-12-01T02:40:12;102156.97;;;8.37;85.08
8699;BME280;4386;51.236;6.742;2022-12-01T02:41:18;102151.66;;;8.37;84.85
8699;BME280;4386;51.236;6.742;2022-12-01T02:42:28;102150.66;;;8.40;85.08
8699;BME280;4386;51.236;6.742;2022-12-01T02:43:52;102146.25;;;8.40;85.05
8699;BME280;4386;51.236;6.742;2022-12-01T02:45:00;102155.88;;;8.41;84.89
8699;BME280;4386;51.236;6.742;2022-12-01T02:46:20;102150.59;;;8.41;84.98
8699;BME280;4386;51.236;6.742;2022-12-01T02:47:31;102153.13;;;8.44;85.16
8699;BME280;4386;51.236;6.742;2022-12-01T02:48:37;102139.09;;;8.42;85.13
8699;BME280;4386;51.236;6.742;2022-12-01T02:49:44;102142.53;;;8.44;84.95
8699;BME280;4386;51.236;6.742;2022-12-01T02:50:48;102149.66;;;8.42;85.03
8699;BME280;4386;51.236;6.742;2022-12-01T02:51:54;102152.41;;;8.41;84.82
8699;BME280;4386;51.236;6.742;2022-12-01T02:52:56;102149.81;;;8.39;84.47
8699;BME280;4386;51.236;6.742;2022-12-01T02:54:01;102149.94;;;8.36;84.75
8699;BME280;4386;51.236;6.742;2022-12-01T02:55:03;102151.72;;;8.35;84.99
8699;BME280;4386;51.236;6.742;2022-12-01T02:56:09;102151.81;;;8.34;85.00
8699;BME280;4386;51.236;6.742;2022-12-01T02:57:13;102148.31;;;8.33;84.92
8699;BME280;4386;51.236;6.742;2022-12-01T02:58:16;102143.94;;;8.32;85.15
8699;BME280;4386;51.236;6.742;2022-12-01T02:59:17;102151.81;;;8.34;85.01
8699;BME280;4386;51.236;6.742;2022-12-01T03:00:20;102145.59;;;8.35;85.09
8699;BME280;4386;51.236;6.742;2022-12-01T03:01:42;102149.94;;;8.36;84.95
8699;BME280;4386;51.236;6.742;2022-12-01T03:03:04;102148.22;;;8.35;84.91
8699;BME280;4386;51.236;6.742;2022-12-01T03:04:33;102146.53;;;8.34;84.85
8699;BME280;4386;51.236;6.742;2022-12-01T03:05:42;102144.72;;;8.34;84.96
8699;BME280;4386;51.236;6.742;2022-12-01T03:06:54;102143.91;;;8.34;85.08
8699;BME280;4386;51.236;6.742;2022-12-01T03:08:05;102145.59;;;8.35;85.23
8699;BME280;4386;51.236;6.742;2022-12-01T03:09:18;102138.63;;;8.34;85.08
8699;BME280;4386;51.236;6.742;2022-12-01T03:10:28;102144.81;;;8.33;84.93
8699;BME280;4386;51.236;6.742;2022-12-01T03:11:45;102151.09;;;8.30;84.83
8699;BME280;4386;51.236;6.742;2022-12-01T03:13:00;102150.34;;;8.27;85.39
8699;BME280;4386;51.236;6.742;2022-12-01T03:14:09;102149.44;;;8.28;85.30
8699;BME280;4386;51.236;6.742;2022-12-01T03:15:24;102150.22;;;8.30;85.30
8699;BME280;4386;51.236;6.742;2022-12-01T03:16:33;102143.09;;;8.32;85.22
8699;BME280;4386;51.236;6.742;2022-12-01T03:17:43;102144.81;;;8.33;85.37
8699;BME280;4386;51.236;6.742;2022-12-01T03:18:51;102149.09;;;8.35;85.44
8699;BME280;4386;51.236;6.742;2022-12-01T03:20:01;102149.03;;;8.37;85.30
8699;BME280;4386;51.236;6.742;2022-12-01T03:21:07;102143.75;;;8.37;85.37
8699;BME280;4386;51.236;6.742;2022-12-01T03:22:14;102148.09;;;8.38;85.40
8699;BME280;4386;51.236;6.742;2022-12-01T03:23:22;102142.81;;;8.38;85.34
8699;BME280;4386;51.236;6.742;2022-12-01T03:24:28;102141.09;;;8.37;85.43
8699;BME280;4386;51.236;6.742;2022-12-01T03:25:34;102147.25;;;8.38;85.55
8699;BME280;4386;51.236;6.742;2022-12-01T03:26:39;102149.81;;;8.39;85.32
8699;BME280;4386;51.236;6.742;2022-12-01T03:27:43;102149.03;;;8.37;85.29
8699;BME280;4386;51.236;6.742;2022-12-01T03:29:10;102146.38;;;8.37;85.15
8699;BME280;4386;51.236;6.742;2022-12-01T03:30:14;102147.31;;;8.36;85.29
8699;BME280;4386;51.236;6.742;2022-12-01T03:31:21;102142.94;;;8.35;85.31
8699;BME280;4386;51.236;6.742;2022-12-01T03:32:28;102144.66;;;8.36;85.37
8699;BME280;4386;51.236;6.742;2022-12-01T03:33:38;102144.66;;;8.36;85.15
8699;BME280;4386;51.236;6.742;2022-12-01T03:34:44;102154.31;;;8.37;85.16
8699;BME280;4386;51.236;6.742;2022-12-01T03:35:52;102148.09;;;8.38;85.06
8699;BME280;4386;51.236;6.742;2022-12-01T03:36:59;102147.16;;;8.39;85.33
8699;BME280;4386;51.236;6.742;2022-12-01T03:38:06;102155.09;;;8.39;85.30
8699;BME280;4386;51.236;6.742;2022-12-01T03:39:14;102147.16;;;8.39;85.38
8699;BME280;4386;51.236;6.742;2022-12-01T03:40:21;102152.41;;;8.41;85.32
8699;BME280;4386;51.236;6.742;2022-12-01T03:41:33;102149.66;;;8.42;85.34
8699;BME280;4386;51.236;6.742;2022-12-01T03:42:40;102149.66;;;8.42;85.27
8699;BME280;4386;51.236;6.742;2022-12-01T03:43:48;102149.75;;;8.41;85.47
8699;BME280;4386;51.236;6.742;2022-12-01T03:44:54;102149.81;;;8.39;85.20
8699;BME280;4386;51.236;6.742;2022-12-01T03:46:01;102152.44;;;8.39;85.32
8699;BME280;4386;51.236;6.742;2022-12-01T03:47:11;102152.44;;;8.39;85.20
8699;BME280;4386;51.236;6.742;2022-12-01T03:48:14;102153.31;;;8.40;85.32
8699;BME280;4386;51.236;6.742;2022-12-01T03:49:20;102157.72;;;8.39;85.36
8699;BME280;4386;51.236;6.742;2022-12-01T03:50:28;102148.88;;;8.40;85.23
8699;BME280;4386;51.236;6.742;2022-12-01T03:51:38;102152.31;;;8.42;85.36
8699;BME280;4386;51.236;6.742;2022-12-01T03:52:46;102154.03;;;8.43;84.93
8699;BME280;4386;51.236;6.742;2022-12-01T03:53:54;102155.75;;;8.44;85.28
8699;BME280;4386;51.236;6.742;2022-12-01T03:55:05;102160.19;;;8.44;85.44
8699;BME280;4386;51.236;6.742;2022-12-01T03:56:12;102160.22;;;8.42;85.28
8699;BME280;4386;51.236;6.742;2022-12-01T03:57:18;102155.09;;;8.39;85.14
8699;BME280;4386;51.236;6.742;2022-12-01T03:58:27;102156.00;;;8.38;85.26
8699;BME280;4386;51.236;6.742;2022-12-01T03:59:35;102150.72;;;8.38;85.33
8699;BME280;4386;51.236;6.742;2022-12-01T04:00:40;102159.66;;;8.35;85.15
8699;BME280;4386;51.236;6.742;2022-12-01T04:01:42;102165.03;;;8.34;85.20
8699;BME280;4386;51.236;6.742;2022-12-01T04:02:44;102155.28;;;8.34;85.38
8699;BME280;4386;51.236;6.742;2022-12-01T04:03:46;102162.38;;;8.34;85.24
8699;BME280;4386;51.236;6.742;2022-12-01T04:04:50;102164.22;;;8.32;85.20
8699;BME280;4386;51.236;6.742;2022-12-01T04:05:52;102151.09;;;8.30;85.21
8699;BME280;4386;51.236;6.742;2022-12-01T04:06:55;102159.88;;;8.31;85.21
8699;BME280;4386;51.236;6.742;2022-12-01T04:07:56;102166.00;;;8.31;85.28
8699;BME280;4386;51.236;6.742;2022-12-01T04:08:59;102168.59;;;8.33;85.68
8699;BME280;4386;51.236;6.742;2022-12-01T04:10:01;102165.94;;;8.33;85.32
8699;BME280;4386;51.236;6.742;2022-12-01T04:11:04;102159.75;;;8.34;85.23
8699;BME280;4386;51.236;6.742;2022-12-01T04:12:32;102164.06;;;8.35;85.16
8699;BME280;4386;51.236;6.742;2022-12-01T04:13:34;102166.72;;;8.35;85.21
8699;BME280;4386;51.236;6.742;2022-12-01T04:14:37;102170.31;;;8.34;85.02
8699;BME280;4386;51.236;6.742;2022-12-01T04:15:39;102163.31;;;8.33;85.21
8699;BME280;4386;51.236;6.742;2022-12-01T04:16:41;102160.66;;;8.33;84.99
8699;BME280;4386;51.236;6.742;2022-12-01T04:17:44;102161.53;;;8.33;85.25
8699;BME280;4386;51.236;6.742;2022-12-01T04:18:46;102159.75;;;8.34;85.17
8699;BME280;4386;51.236;6.742;2022-12-01T04:19:49;102163.22;;;8.34;85.08
8699;BME280;4386;51.236;6.742;2022-12-01T04:20:52;102167.66;;;8.34;84.99
8699;BME280;4386;51.236;6.742;2022-12-01T04:21:53;102165.03;;;8.34;85.00
8699;BME280;4386;51.236;6.742;2022-12-01T04:22:56;102162.38;;;8.34;85.11
8699;BME280;4386;51.236;6.742;2022-12-01T04:23:57;102165.03;;;8.34;85.31
8699;BME280;4386;51.236;6.742;2022-12-01T04:25:03;102160.50;;;8.36;84.66
8699;BME280;4386;51.236;6.742;2022-12-01T04:26:06;102162.25;;;8.37;84.92
8699;BME280;4386;51.236;6.742;2022-12-01T04:27:15;102160.50;;;8.36;84.61
8699;BME280;4386;51.236;6.742;2022-12-01T04:28:18;102163.94;;;8.38;84.61
8699;BME280;4386;51.236;6.742;2022-12-01T04:29:20;102161.28;;;8.38;84.71
8699;BME280;4386;51.236;6.742;2022-12-01T04:30:22;102162.25;;;8.37;84.56
8699;BME280;4386;51.236;6.742;2022-12-01T04:31:24;102160.50;;;8.36;84.53
8699;BME280;4386;51.236;6.742;2022-12-01T04:32:27;102161.28;;;8.38;84.62
8699;BME280;4386;51.236;6.742;2022-12-01T04:33:29;102153.38;;;8.38;84.53
8699;BME280;4386;51.236;6.742;2022-12-01T04:34:31;102152.44;;;8.39;84.39
8699;BME280;4386;51.236;6.742;2022-12-01T04:35:34;102155.03;;;8.41;84.42
8699;BME280;4386;51.236;6.742;2022-12-01T04:36:36;102160.22;;;8.42;84.69
8699;BME280;4386;51.236;6.742;2022-12-01T04:37:39;102151.38;;;8.43;84.49
8699;BME280;4386;51.236;6.742;2022-12-01T04:38:41;102147.94;;;8.41;84.30
8699;BME280;4386;51.236;6.742;2022-12-01T04:39:43;102157.59;;;8.42;84.15
8699;BME280;4386;51.236;6.742;2022-12-01T04:40:46;102151.53;;;8.40;84.18
8699;BME280;4386;51.236;6.742;2022-12-01T04:41:48;102153.31;;;8.40;84.02
8699;BME280;4386;51.236;6.742;2022-12-01T04:42:50;102150.72;;;8.38;83.92
8699;BME280;4386;51.236;6.742;2022-12-01T04:43:52;102159.59;;;8.37;83.87
8699;BME280;4386;51.236;6.742;2022-12-01T04:44:55;102146.53;;;8.34;84.05
8699;BME280;4386;51.236;6.742;2022-12-01T04:45:56;102155.38;;;8.33;83.92
8699;BME280;4386;51.236;6.742;2022-12-01T04:46:59;102151.00;;;8.32;83.94
8699;BME280;4386;51.236;6.742;2022-12-01T04:48:02;102144.94;;;8.30;83.82
8699;BME280;4386;51.236;6.742;2022-12-01T04:49:03;102153.78;;;8.29;83.84
8699;BME280;4386;51.236;6.742;2022-12-01T04:50:07;102146.72;;;8.29;84.12
8699;BME280;4386;51.236;6.742;2022-12-01T04:51:12;102148.50;;;8.29;83.96
8699;BME280;4386;51.236;6.742;2022-12-01T04:52:14;102144.16;;;8.28;84.00
8699;BME280;4386;51.236;6.742;2022-12-01T04:53:17;102152.00;;;8.29;83.82
8699;BME280;4386;51.236;6.742;2022-12-01T04:54:18;102145.88;;;8.29;84.01
8699;BME280;4386;51.236;6.742;2022-12-01T04:55:21;102143.22;;;8.29;83.93
8699;BME280;4386;51.236;6.742;2022-12-01T04:56:23;102144.16;;;8.28;83.60
8699;BME280;4386;51.236;6.742;2022-12-01T04:57:25;102147.69;;;8.27;83.66
8699;BME280;4386;51.236;6.742;2022-12-01T04:58:27;102145.06;;;8.27;83.91
8699;BME280;4386;51.236;6.742;2022-12-01T04:59:30;102145.94;;;8.27;83.44
8699;BME280;4386;51.236;6.742;2022-12-01T05:00:32;102152.06;;;8.28;83.58
8699;BME280;4386;51.236;6.742;2022-12-01T05:01:34;102145.06;;;8.27;83.44
8699;BME280;4386;51.236;6.742;2022-12-01T05:02:36;102146.78;;;8.28;83.55
8699;BME280;4386;51.236;6.742;2022-12-01T05:03:41;102147.66;;;8.28;83.51
8699;BME280;4386;51.236;6.742;2022-12-01T05:04:43;102145.06;;;8.27;83.61
8699;BME280;4386;51.236;6.742;2022-12-01T05:05:48;102149.44;;;8.28;83.35
8699;BME280;4386;51.236;6.742;2022-12-01T05:06:52;102149.44;;;8.28;83.44
8699;BME280;4386;51.236;6.742;2022-12-01T05:07:56;102153.91;;;8.26;83.30
8699;BME280;4386;51.236;6.742;2022-12-01T05:09:00;102145.19;;;8.24;82.99
8699;BME280;4386;51.236;6.742;2022-12-01T05:10:03;102147.75;;;8.25;83.19
8699;BME280;4386;51.236;6.742;2022-12-01T05:11:06;102145.19;;;8.24;83.33
8699;BME280;4386;51.236;6.742;2022-12-01T05:12:09;102153.91;;;8.26;83.06
8699;BME280;4386;51.236;6.742;2022-12-01T05:13:11;102145.97;;;8.26;83.21
8699;BME280;4386;51.236;6.742;2022-12-01T05:14:13;102145.97;;;8.26;82.75
8699;BME280;4386;51.236;6.742;2022-12-01T05:15:15;102146.91;;;8.25;82.99
8699;BME280;4386;51.236;6.742;2022-12-01T05:16:20;102146.06;;;8.24;82.83
8699;BME280;4386;51.236;6.742;2022-12-01T05:17:22;102155.63;;;8.27;82.95
8699;BME280;4386;51.236;6.742;2022-12-01T05:18:24;102145.06;;;8.27;82.65
8699;BME280;4386;51.236;6.742;2022-12-01T05:19:27;102143.34;;;8.26;82.81
8699;BME280;4386;51.236;6.742;2022-12-01T05:20:47;102145.94;;;8.27;82.63
8699;BME280;4386;51.236;6.742;2022-12-01T05:21:59;102139.91;;;8.24;82.68
8699;BME280;4386;51.236;6.742;2022-12-01T05:23:02;102153.13;;;8.24;82.34
8699;BME280;4386;51.236;6.742;2022-12-01T05:24:07;102149.63;;;8.23;82.60
8699;BME280;4386;51.236;6.742;2022-12-01T05:25:09;102154.03;;;8.23;82.66
8699;BME280;4386;51.236;6.742;2022-12-01T05:26:11;102145.25;;;8.22;82.30
8699;BME280;4386;51.236;6.742;2022-12-01T05:27:13;102143.47;;;8.23;82.74
8699;BME280;4386;51.236;6.742;2022-12-01T05:28:16;102147.03;;;8.22;82.26
8699;BME280;4386;51.236;6.742;2022-12-01T05:29:18;102143.47;;;8.23;82.47
8699;BME280;4386;51.236;6.742;2022-12-01T05:30:20;102151.41;;;8.23;82.47
8699;BME280;4386;51.236;6.742;2022-12-01T05:31:29;102143.47;;;8.23;82.74
8699;BME280;4386;51.236;6.742;2022-12-01T05:32:31;102151.41;;;8.23;82.63
8699;BME280;4386;51.236;6.742;2022-12-01T05:33:33;102155.78;;;8.24;82.52
8699;BME280;4386;51.236;6.742;2022-12-01T05:34:36;102155.78;;;8.24;82.76
8699;BME280;4386;51.236;6.742;2022-12-01T05:35:37;102154.03;;;8.23;82.19
8699;BME280;4386;51.236;6.742;2022-12-01T05:36:40;102151.41;;;8.23;82.34
8699;BME280;4386;51.236;6.742;2022-12-01T05:37:43;102154.97;;;8.22;82.82
8699;BME280;4386;51.236;6.742;2022-12-01T05:38:46;102157.59;;;8.22;82.46
8699;BME280;4386;51.236;6.742;2022-12-01T05:39:47;102154.03;;;8.23;82.62
8699;BME280;4386;51.236;6.742;2022-12-01T05:40:51;102162.81;;;8.23;82.70
8699;BME280;4386;51.236;6.742;2022-12-01T05:41:53;102164.56;;;8.24;82.49
8699;BME280;4386;51.236;6.742;2022-12-01T05:42:56;102162.75;;;8.25;82.54
8699;BME280;4386;51.236;6.742;2022-12-01T05:43:58;102157.41;;;8.26;82.31
8699;BME280;4386;51.236;6.742;2022-12-01T05:45:02;102160.91;;;8.27;82.42
8699;BME280;4386;51.236;6.742;2022-12-01T05:46:04;102164.34;;;8.29;82.50
8699;BME280;4386;51.236;6.742;2022-12-01T05:47:07;102162.53;;;8.31;82.69
8699;BME280;4386;51.236;6.742;2022-12-01T05:48:08;102164.22;;;8.32;82.46
8699;BME280;4386;51.236;6.742;2022-12-01T05:49:11;102169.50;;;8.32;82.48
8699;BME280;4386;51.236;6.742;2022-12-01T05:50:15;102162.44;;;8.32;82.45
8699;BME280;4386;51.236;6.742;2022-12-01T05:51:17;102166.81;;;8.33;82.45
8699;BME280;4386;51.236;6.742;2022-12-01T05:52:19;102165.03;;;8.34;82.41
8699;BME280;4386;51.236;6.742;2022-12-01T05:53:23;102165.03;;;8.34;82.69
8699;BME280;4386;51.236;6.742;2022-12-01T05:54:28;102172.00;;;8.35;82.59
8699;BME280;4386;51.236;6.742;2022-12-01T05:55:31;102162.28;;;8.35;82.33
8699;BME280;4386;51.236;6.742;2022-12-01T05:56:34;102166.81;;;8.33;82.39